createdAt,value
2023-04-10T00:00:28.847Z,10.87
2023-04-10T00:15:18.745Z,10.50
2023-04-10T00:30:08.012Z,9.83
2023-04-10T00:44:58.465Z,9.67
2023-04-10T00:59:48.590Z,9.78
2023-04-10T01:15:06.735Z,9.79
2023-04-10T01:30:17.633Z,9.79
2023-04-10T01:45:14.713Z,9.75
2023-04-10T02:29:52.539Z,9.60
2023-04-10T02:44:42.310Z,9.44
2023-04-10T03:14:25.253Z,9.17
2023-04-10T03:29:15.759Z,9.08
2023-04-10T03:44:06.050Z,9.04
2023-04-10T03:58:57.926Z,8.93
2023-04-10T04:13:48.223Z,8.46
2023-04-10T04:28:38.540Z,8.44
2023-04-10T04:43:29.011Z,8.57
2023-04-10T04:58:20.365Z,8.56
2023-04-10T05:13:10.633Z,8.64
2023-04-10T05:28:01.903Z,8.85
2023-04-10T05:42:52.791Z,9.02
2023-04-10T05:57:43.071Z,9.22
2023-04-10T06:12:34.772Z,9.36
2023-04-10T06:27:26.098Z,9.69
2023-04-10T06:42:17.608Z,9.98
2023-04-10T06:57:09.781Z,10.27
2023-04-10T07:12:00.644Z,10.74
2023-04-10T07:26:52.340Z,11.24
2023-04-10T07:41:44.911Z,11.72
2023-04-10T07:56:38.219Z,12.23
2023-04-10T08:11:32.000Z,12.78
2023-04-10T08:26:23.900Z,13.29
2023-04-10T08:41:16.228Z,13.81
2023-04-10T08:56:10.088Z,14.31
2023-04-10T09:25:54.258Z,15.25
2023-04-10T09:40:47.839Z,15.77
2023-04-10T09:55:40.125Z,16.20
2023-04-10T10:25:24.727Z,16.70
2023-04-10T10:40:24.984Z,16.93
2023-04-10T11:10:58.545Z,17.65
2023-04-10T11:25:57.106Z,18.30
2023-04-10T11:41:04.180Z,18.60
2023-04-10T11:56:01.485Z,19.01
2023-04-10T12:10:53.530Z,19.26
2023-04-10T12:25:45.351Z,19.43
2023-04-10T12:40:37.413Z,19.69
2023-04-10T12:55:30.410Z,20.16
2023-04-10T13:10:22.367Z,19.92
2023-04-10T13:40:07.254Z,20.43
2023-04-10T14:09:52.989Z,20.73
2023-04-10T14:24:45.411Z,20.79
2023-04-10T16:08:47.487Z,19.52
2023-04-10T16:23:39.177Z,19.40
2023-04-10T16:38:31.213Z,19.35
2023-04-10T16:53:21.483Z,19.07
2023-04-10T17:08:12.641Z,18.82
2023-04-10T17:23:03.199Z,18.61
2023-04-10T17:37:54.566Z,18.38
2023-04-10T17:52:45.889Z,18.17
2023-04-10T18:07:37.994Z,17.91
2023-04-10T18:22:33.904Z,17.71
2023-04-10T18:37:25.530Z,17.54
2023-04-10T19:07:23.462Z,17.29
2023-04-10T19:22:16.689Z,17.17
2023-04-10T19:37:07.422Z,17.09
2023-04-10T19:51:59.147Z,16.96
2023-04-10T20:06:50.500Z,16.82
2023-04-10T20:21:40.971Z,16.64
2023-04-10T20:36:32.237Z,16.49
2023-04-10T20:51:23.036Z,16.36
2023-04-10T21:06:13.410Z,16.15
2023-04-10T21:21:04.975Z,16.01
2023-04-10T21:35:56.060Z,15.88
2023-04-10T21:50:46.943Z,15.80
2023-04-10T22:05:38.271Z,15.76
2023-04-10T22:20:29.166Z,15.81
2023-04-10T22:35:20.881Z,15.91
2023-04-10T22:50:12.595Z,15.94
2023-04-10T23:19:54.633Z,15.61
2023-04-10T23:34:45.487Z,15.43
